createdAt,value
2019-04-06T00:02:04.775Z,7.29
2019-04-06T00:04:36.154Z,7.27
2019-04-06T00:07:09.295Z,7.23
2019-04-06T00:09:40.674Z,7.22
2019-04-06T00:12:12.110Z,7.21
2019-04-06T00:14:43.527Z,7.18
2019-04-06T00:17:14.905Z,7.17
2019-04-06T00:19:46.203Z,7.18
2019-04-06T00:22:17.514Z,7.13
2019-04-06T00:24:48.856Z,7.13
2019-04-06T00:27:20.175Z,7.08
2019-04-06T00:29:51.470Z,7.05
2019-04-06T00:32:22.545Z,7.02
2019-04-06T00:34:53.961Z,7.00
2019-04-06T00:37:31.417Z,7.02
2019-04-06T00:40:02.700Z,6.98
2019-04-06T00:42:35.132Z,6.91
2019-04-06T00:45:09.351Z,6.86
2019-04-06T00:47:40.770Z,6.84
2019-04-06T00:50:12.373Z,6.80
2019-04-06T00:52:43.603Z,6.78
2019-04-06T00:55:23.990Z,6.73
2019-04-06T00:57:55.274Z,6.69
2019-04-06T01:00:27.638Z,6.67
2019-04-06T01:02:58.862Z,6.65
2019-04-06T01:05:36.196Z,6.65
2019-04-06T01:08:08.505Z,6.64
2019-04-06T01:10:39.934Z,6.62
2019-04-06T01:13:11.236Z,6.57
2019-04-06T01:15:42.821Z,6.54
2019-04-06T01:18:14.117Z,6.52
2019-04-06T01:20:46.206Z,6.52
2019-04-06T01:23:17.559Z,6.53
2019-04-06T01:25:48.856Z,6.52
2019-04-06T01:28:21.119Z,6.52
2019-04-06T01:30:52.514Z,6.50
2019-04-06T01:33:23.885Z,6.43
2019-04-06T01:35:55.175Z,6.37
2019-04-06T01:38:26.479Z,6.37
2019-04-06T01:41:07.518Z,6.36
2019-04-06T01:43:38.862Z,6.34
2019-04-06T01:46:10.280Z,6.30
2019-04-06T01:48:46.004Z,6.25
2019-04-06T01:51:17.500Z,6.14
2019-04-06T01:53:48.809Z,6.17
2019-04-06T01:56:21.222Z,6.14
2019-04-06T01:58:52.540Z,6.12
2019-04-06T02:01:26.595Z,6.03
2019-04-06T02:03:57.826Z,5.97
2019-04-06T02:06:29.197Z,5.91
2019-04-06T02:09:00.508Z,5.89
2019-04-06T02:11:33.513Z,5.88
2019-04-06T02:14:06.587Z,5.93
2019-04-06T02:16:37.994Z,5.96
2019-04-06T02:19:09.299Z,5.95
2019-04-06T02:21:40.661Z,5.90
2019-04-06T02:24:11.903Z,5.87
2019-04-06T02:26:43.333Z,5.85
2019-04-06T02:29:14.849Z,5.89
2019-04-06T02:32:03.859Z,5.95
2019-04-06T02:34:42.410Z,6.02
2019-04-06T02:37:13.516Z,6.01
2019-04-06T02:39:50.649Z,5.98
2019-04-06T02:42:26.586Z,5.89
2019-04-06T02:44:57.889Z,5.89
2019-04-06T02:47:32.059Z,5.88
2019-04-06T02:50:04.344Z,5.90
2019-04-06T02:52:35.808Z,5.93
2019-04-06T02:55:07.274Z,5.97
2019-04-06T02:57:38.828Z,5.98
2019-04-06T03:00:11.107Z,5.92
2019-04-06T03:02:44.209Z,5.93
2019-04-06T03:05:16.580Z,5.92
2019-04-06T03:07:47.880Z,5.95
2019-04-06T03:10:21.074Z,5.95
2019-04-06T03:12:52.506Z,5.98
2019-04-06T03:15:23.865Z,5.98
2019-04-06T03:17:55.209Z,5.99
2019-04-06T03:20:26.507Z,6.01
2019-04-06T03:22:57.824Z,6.05
2019-04-06T03:25:32.617Z,5.99
2019-04-06T03:28:06.248Z,5.93
2019-04-06T03:30:44.488Z,5.96
2019-04-06T03:33:15.956Z,5.96
2019-04-06T03:35:49.392Z,6.00
2019-04-06T03:38:20.320Z,6.00
2019-04-06T03:40:52.811Z,6.01
2019-04-06T03:43:24.085Z,6.04
2019-04-06T03:45:55.317Z,6.06
2019-04-06T03:48:26.734Z,6.09
2019-04-06T03:51:01.282Z,6.14
2019-04-06T03:53:34.749Z,6.17
2019-04-06T03:56:06.144Z,6.18
2019-04-06T03:58:37.602Z,6.10
2019-04-06T04:01:08.957Z,6.09
2019-04-06T04:03:40.469Z,6.10
2019-04-06T04:06:11.775Z,6.11
2019-04-06T04:08:43.085Z,6.04
2019-04-06T04:11:14.358Z,6.07
2019-04-06T04:13:45.862Z,6.09
2019-04-06T04:16:18.975Z,6.06
2019-04-06T04:18:50.369Z,6.07
2019-04-06T04:21:21.707Z,6.04
2019-04-06T04:23:53.296Z,5.95
2019-04-06T04:26:24.593Z,5.88
2019-04-06T04:28:56.018Z,5.75
2019-04-06T04:31:27.402Z,5.73
2019-04-06T04:33:59.769Z,5.73
2019-04-06T04:36:31.129Z,5.75
2019-04-06T04:39:08.130Z,5.77
2019-04-06T04:41:46.437Z,5.70
2019-04-06T04:44:19.832Z,5.65
2019-04-06T04:46:52.201Z,5.67
2019-04-06T04:49:23.647Z,5.59
2019-04-06T04:51:55.052Z,5.58
2019-04-06T04:54:26.383Z,5.47
2019-04-06T04:56:57.742Z,5.44
2019-04-06T04:59:29.039Z,5.48
2019-04-06T05:02:07.528Z,5.45
2019-04-06T05:04:39.035Z,5.48
2019-04-06T05:07:13.863Z,5.49
2019-04-06T05:09:45.346Z,5.51
2019-04-06T05:12:16.881Z,5.52
2019-04-06T05:15:22.803Z,5.44
2019-04-06T05:17:54.110Z,5.48
2019-04-06T05:20:25.416Z,5.42
2019-04-06T05:22:56.910Z,5.32
2019-04-06T05:25:28.374Z,5.27
2019-04-06T05:27:59.677Z,5.23
2019-04-06T05:30:31.109Z,5.13
2019-04-06T05:33:02.488Z,5.00
2019-04-06T05:35:34.085Z,4.99
2019-04-06T05:38:15.416Z,4.81
2019-04-06T05:40:46.768Z,4.76
2019-04-06T05:43:18.334Z,4.77
2019-04-06T05:45:49.657Z,4.87
2019-04-06T05:48:20.961Z,4.94
2019-04-06T05:50:52.324Z,5.03
2019-04-06T05:53:23.607Z,5.14
2019-04-06T05:55:54.962Z,5.23
2019-04-06T05:58:26.280Z,5.30
2019-04-06T06:01:04.461Z,5.27
2019-04-06T06:03:35.728Z,5.31
2019-04-06T06:06:07.255Z,5.42
2019-04-06T06:08:38.620Z,5.50
2019-04-06T06:11:09.961Z,5.59
2019-04-06T06:13:48.047Z,5.64
2019-04-06T06:16:19.497Z,5.70
2019-04-06T06:18:52.596Z,5.74
2019-04-06T06:21:24.115Z,5.62
2019-04-06T06:23:55.342Z,5.55
2019-04-06T06:26:26.823Z,5.62
2019-04-06T06:28:59.158Z,5.59
2019-04-06T06:31:30.612Z,5.42
2019-04-06T06:34:02.697Z,5.51
2019-04-06T06:36:34.307Z,5.71
2019-04-06T06:39:08.373Z,5.83
2019-04-06T06:41:39.768Z,5.82
2019-04-06T06:44:11.297Z,5.66
2019-04-06T06:46:42.644Z,5.69
2019-04-06T06:49:13.867Z,5.79
2019-04-06T06:51:45.144Z,5.79
2019-04-06T06:54:16.581Z,5.81
2019-04-06T06:56:48.000Z,5.85
2019-04-06T06:59:19.309Z,5.93
2019-04-06T07:01:50.577Z,5.98
2019-04-06T07:04:21.812Z,6.10
2019-04-06T07:06:53.171Z,6.14
2019-04-06T07:09:24.481Z,6.13
2019-04-06T07:11:56.138Z,6.09
2019-04-06T07:14:27.399Z,6.03
2019-04-06T07:16:58.852Z,6.08
2019-04-06T07:19:31.537Z,6.09
2019-04-06T07:22:02.885Z,6.21
2019-04-06T07:24:34.228Z,6.34
2019-04-06T07:27:06.757Z,6.46
2019-04-06T07:29:38.169Z,6.53
2019-04-06T07:32:15.348Z,6.49
2019-04-06T07:34:46.950Z,6.57
2019-04-06T07:37:18.229Z,6.66
2019-04-06T07:39:49.526Z,6.68
2019-04-06T07:42:27.096Z,6.40
2019-04-06T07:45:04.361Z,6.52
2019-04-06T07:47:36.035Z,6.60
2019-04-06T07:50:10.500Z,6.73
2019-04-06T07:52:46.429Z,6.73
2019-04-06T07:55:17.770Z,6.88
2019-04-06T07:57:49.152Z,6.94
2019-04-06T08:00:20.832Z,7.09
2019-04-06T08:02:55.043Z,7.22
2019-04-06T08:05:26.605Z,7.29
2019-04-06T08:07:58.245Z,7.38
2019-04-06T08:10:29.741Z,7.48
2019-04-06T08:13:02.256Z,7.50
2019-04-06T08:15:35.760Z,7.53
2019-04-06T08:18:08.364Z,7.70
2019-04-06T08:20:40.695Z,7.79
2019-04-06T08:23:12.029Z,7.90
2019-04-06T08:25:43.472Z,7.99
2019-04-06T08:28:14.748Z,7.96
2019-04-06T08:30:52.052Z,7.98
2019-04-06T08:33:25.546Z,8.07
2019-04-06T08:35:57.157Z,8.31
2019-04-06T08:38:30.473Z,8.51
2019-04-06T08:41:05.343Z,8.69
2019-04-06T08:43:36.691Z,8.74
2019-04-06T08:46:07.994Z,8.83
2019-04-06T08:48:39.279Z,9.04
2019-04-06T08:51:10.578Z,9.22
2019-04-06T08:53:42.030Z,9.32
2019-04-06T08:56:14.980Z,9.54
2019-04-06T08:58:46.468Z,9.63
2019-04-06T09:01:17.838Z,9.82
2019-04-06T09:03:49.115Z,9.99
2019-04-06T09:06:20.355Z,10.11
2019-04-06T09:08:53.083Z,10.24
2019-04-06T09:11:24.410Z,10.30
2019-04-06T09:13:55.934Z,10.48
2019-04-06T09:16:27.384Z,10.65
2019-04-06T09:18:58.864Z,10.80
2019-04-06T09:21:31.686Z,10.95
2019-04-06T09:24:03.151Z,11.03
2019-04-06T09:26:34.547Z,11.12
2019-04-06T09:29:06.264Z,11.19
2019-04-06T09:31:37.866Z,11.19
2019-04-06T09:34:09.485Z,11.28
2019-04-06T09:36:42.611Z,11.33
2019-04-06T09:39:15.688Z,11.43
2019-04-06T09:41:46.977Z,11.58
2019-04-06T09:44:25.729Z,11.76
2019-04-06T09:47:01.525Z,11.84
2019-04-06T09:49:34.482Z,11.94
2019-04-06T09:52:24.619Z,12.13
2019-04-06T09:54:57.554Z,12.28
2019-04-06T09:57:31.514Z,12.43
2019-04-06T10:00:07.258Z,12.60
2019-04-06T10:02:55.989Z,12.74
2019-04-06T10:05:31.600Z,12.85
2019-04-06T10:08:17.156Z,12.86
2019-04-06T10:10:59.196Z,12.95
2019-04-06T10:13:39.337Z,13.03
2019-04-06T10:16:25.383Z,13.12
2019-04-06T10:19:08.752Z,13.18
2019-04-06T10:21:53.085Z,13.38
2019-04-06T10:24:42.049Z,13.62
2019-04-06T10:27:25.389Z,13.67
2019-04-06T10:30:14.706Z,13.89
2019-04-06T10:32:47.670Z,14.08
2019-04-06T10:35:27.369Z,14.04
2019-04-06T10:38:05.999Z,13.82
2019-04-06T10:40:52.135Z,13.94
2019-04-06T10:43:28.173Z,14.19
2019-04-06T10:46:18.079Z,14.37
2019-04-06T10:48:51.000Z,14.59
2019-04-06T10:51:41.340Z,14.90
2019-04-06T10:54:16.275Z,14.94
2019-04-06T10:56:53.431Z,15.14
2019-04-06T10:59:39.207Z,15.18
2019-04-06T11:02:29.375Z,15.36
2019-04-06T11:05:02.338Z,15.43
2019-04-06T11:07:38.260Z,15.34
2019-04-06T11:10:11.398Z,15.55
2019-04-06T11:12:44.524Z,15.18
2019-04-06T11:15:23.343Z,15.52
2019-04-06T11:18:02.473Z,15.81
2019-04-06T11:20:37.499Z,16.06
2019-04-06T11:23:23.900Z,16.29
2019-04-06T11:26:09.972Z,16.43
2019-04-06T11:28:46.526Z,16.17
2019-04-06T11:31:19.697Z,16.32
2019-04-06T11:34:09.980Z,16.60
2019-04-06T11:36:59.117Z,16.62
2019-04-06T11:39:30.204Z,16.72
2019-04-06T11:42:03.160Z,16.92
2019-04-06T11:44:38.184Z,16.78
2019-04-06T11:47:27.568Z,16.65
2019-04-06T11:50:00.593Z,16.45
2019-04-06T11:52:33.703Z,16.29
2019-04-06T11:55:08.291Z,16.35
2019-04-06T11:58:06.243Z,16.55
2019-04-06T12:00:42.037Z,16.62
2019-04-06T12:03:15.079Z,16.83
2019-04-06T12:05:53.946Z,16.84
2019-04-06T12:08:25.625Z,16.99
2019-04-06T12:11:11.559Z,17.46
2019-04-06T12:13:56.512Z,17.48
2019-04-06T12:16:35.022Z,17.01
2019-04-06T12:19:10.797Z,16.91
2019-04-06T12:21:51.138Z,16.81
2019-04-06T12:24:35.884Z,16.78
2019-04-06T12:27:20.709Z,16.43
2019-04-06T12:29:55.166Z,16.11
2019-04-06T12:32:38.923Z,15.97
2019-04-06T12:35:25.305Z,16.02
2019-04-06T12:38:00.761Z,16.20
2019-04-06T12:40:41.897Z,16.37
2019-04-06T12:43:22.146Z,16.48
2019-04-06T12:46:07.994Z,16.69
2019-04-06T12:48:56.814Z,16.67
2019-04-06T12:51:33.828Z,17.13
2019-04-06T12:54:24.075Z,17.42
2019-04-06T12:57:06.361Z,17.37
2019-04-06T12:59:51.280Z,17.10
2019-04-06T13:02:30.443Z,16.68
2019-04-06T13:05:06.315Z,16.26
2019-04-06T13:07:55.469Z,16.06
2019-04-06T13:10:26.761Z,15.93
2019-04-06T13:13:00.043Z,15.74
2019-04-06T13:15:36.568Z,15.67
2019-04-06T13:18:10.045Z,15.65
2019-04-06T13:21:01.281Z,15.62
2019-04-06T13:23:34.328Z,15.83
2019-04-06T13:26:19.474Z,15.85
2019-04-06T13:29:01.666Z,15.97
2019-04-06T13:31:35.927Z,15.93
2019-04-06T13:34:22.095Z,15.91
2019-04-06T13:36:56.267Z,15.85
2019-04-06T13:39:37.785Z,15.79
2019-04-06T13:42:27.119Z,15.83
2019-04-06T13:45:05.839Z,15.77
2019-04-06T13:47:36.982Z,15.89
2019-04-06T13:50:26.989Z,15.91
2019-04-06T13:53:15.930Z,15.87
2019-04-06T13:55:48.969Z,15.79
2019-04-06T13:58:27.967Z,15.84
2019-04-06T14:01:19.638Z,16.03
2019-04-06T14:03:55.176Z,16.04
2019-04-06T14:06:40.271Z,16.05
2019-04-06T14:09:14.949Z,16.04
2019-04-06T14:12:05.239Z,16.11
2019-04-06T14:14:38.217Z,16.32
2019-04-06T14:17:32.664Z,16.56
2019-04-06T14:20:19.345Z,16.70
2019-04-06T14:22:52.531Z,16.60
2019-04-06T14:25:29.624Z,16.32
2019-04-06T14:28:02.711Z,16.37
2019-04-06T14:30:40.089Z,16.26
2019-04-06T14:33:16.674Z,16.28
2019-04-06T14:35:52.320Z,16.32
2019-04-06T14:38:27.665Z,16.28
2019-04-06T14:41:16.419Z,16.38
2019-04-06T14:43:48.777Z,16.55
2019-04-06T14:46:22.076Z,16.73
2019-04-06T14:49:09.492Z,16.90
2019-04-06T14:51:51.533Z,17.00
2019-04-06T14:54:27.265Z,17.40
2019-04-06T14:57:03.117Z,17.73
2019-04-06T14:59:52.326Z,17.64
2019-04-06T15:02:40.763Z,17.63
2019-04-06T15:05:27.478Z,17.86
2019-04-06T15:08:01.486Z,18.20
2019-04-06T15:10:49.684Z,18.39
2019-04-06T15:13:28.668Z,18.47
2019-04-06T15:16:09.009Z,18.32
2019-04-06T15:19:01.330Z,18.30
2019-04-06T15:21:40.699Z,18.35
2019-04-06T15:24:16.702Z,18.31
2019-04-06T15:26:53.269Z,18.37
2019-04-06T15:29:30.742Z,18.47
2019-04-06T15:32:08.852Z,18.49
2019-04-06T15:34:59.084Z,18.57
2019-04-06T15:37:34.414Z,18.67
2019-04-06T15:40:14.233Z,18.85
2019-04-06T15:42:55.177Z,18.81
2019-04-06T15:45:26.994Z,18.65
2019-04-06T15:48:15.372Z,18.75
2019-04-06T15:50:54.626Z,18.79
2019-04-06T15:53:26.391Z,18.83
2019-04-06T15:56:05.695Z,18.86
2019-04-06T15:58:38.861Z,18.90
2019-04-06T16:01:31.881Z,18.96
2019-04-06T16:04:03.085Z,18.97
2019-04-06T16:06:36.053Z,18.79
2019-04-06T16:09:15.767Z,18.39
2019-04-06T16:11:57.520Z,18.33
2019-04-06T16:14:33.207Z,18.13
2019-04-06T16:17:15.527Z,17.88
2019-04-06T16:20:07.004Z,18.08
2019-04-06T16:22:38.367Z,18.00
2019-04-06T16:25:14.752Z,18.09
2019-04-06T16:27:47.702Z,17.89
2019-04-06T16:30:34.875Z,17.82
2019-04-06T16:33:14.537Z,17.60
2019-04-06T16:35:52.740Z,17.54
2019-04-06T16:38:35.445Z,17.22
2019-04-06T16:41:32.038Z,17.15
2019-04-06T16:44:07.938Z,16.94
2019-04-06T16:46:49.690Z,16.77
2019-04-06T16:49:31.583Z,16.58
2019-04-06T16:52:06.576Z,16.52
2019-04-06T16:54:37.757Z,16.49
2019-04-06T16:57:10.725Z,16.45
2019-04-06T16:59:43.709Z,16.36
2019-04-06T17:02:24.251Z,16.30
2019-04-06T17:04:54.681Z,16.32
2019-04-06T17:07:27.845Z,16.31
2019-04-06T17:10:00.702Z,16.29
2019-04-06T17:12:42.307Z,16.29
2019-04-06T17:15:15.439Z,16.22
2019-04-06T17:17:58.746Z,16.12
2019-04-06T17:20:35.944Z,16.09
2019-04-06T17:23:17.497Z,15.97
2019-04-06T17:25:54.641Z,15.87
2019-04-06T17:28:30.333Z,15.80
2019-04-06T17:31:21.846Z,15.73
2019-04-06T17:34:16.556Z,15.69
2019-04-06T17:37:06.848Z,15.56
2019-04-06T17:39:50.273Z,15.49
2019-04-06T17:42:49.010Z,15.45
2019-04-06T17:45:31.375Z,15.37
2019-04-06T17:48:29.971Z,15.24
2019-04-06T17:51:10.293Z,15.17
2019-04-06T17:54:02.896Z,15.11
2019-04-06T17:56:45.597Z,15.08
2019-04-06T17:59:32.407Z,15.02
2019-04-06T18:02:22.468Z,14.91
2019-04-06T18:05:18.564Z,14.76
2019-04-06T18:08:00.187Z,14.69
2019-04-06T18:10:45.440Z,14.58
2019-04-06T18:13:26.656Z,14.46
2019-04-06T18:16:12.723Z,14.30
2019-04-06T18:18:54.805Z,14.22
2019-04-06T18:21:38.341Z,14.04
2019-04-06T18:24:25.944Z,13.97
2019-04-06T18:27:00.015Z,13.94
2019-04-06T18:29:40.467Z,13.87
2019-04-06T18:32:26.081Z,13.84
2019-04-06T18:35:10.815Z,13.76
2019-04-06T18:37:48.782Z,13.67
2019-04-06T18:43:25.703Z,13.51
2019-04-06T18:45:57.652Z,13.45
2019-04-06T18:48:29.316Z,13.40
2019-04-06T18:51:01.101Z,13.38
2019-04-06T18:53:37.624Z,13.38
2019-04-06T18:56:09.687Z,13.35
2019-04-06T18:58:44.146Z,13.35
2019-04-06T19:01:15.644Z,13.26
2019-04-06T19:03:47.291Z,13.23
2019-04-06T19:06:24.586Z,13.20
2019-04-06T19:08:57.593Z,13.16
2019-04-06T19:11:28.951Z,13.16
2019-04-06T19:14:00.338Z,13.10
2019-04-06T19:16:35.517Z,13.05
2019-04-06T19:19:06.866Z,12.99
2019-04-06T19:21:38.764Z,12.99
2019-04-06T19:24:10.329Z,12.98
2019-04-06T19:26:42.189Z,12.95
2019-04-06T19:29:13.723Z,12.93
2019-04-06T19:31:46.778Z,12.88
2019-04-06T19:34:18.251Z,12.83
2019-04-06T19:36:49.943Z,12.82
2019-04-06T19:39:21.693Z,12.76
2019-04-06T19:41:53.805Z,12.72
2019-04-06T19:44:27.160Z,12.66
2019-04-06T19:46:58.646Z,12.66
2019-04-06T19:49:33.213Z,12.62
2019-04-06T19:52:10.723Z,12.58
2019-04-06T19:54:42.368Z,12.56
2019-04-06T19:57:14.790Z,12.55
2019-04-06T19:59:46.192Z,12.52
2019-04-06T20:02:17.509Z,12.54
2019-04-06T20:04:48.810Z,12.47
2019-04-06T20:07:20.660Z,12.45
2019-04-06T20:09:52.189Z,12.42
2019-04-06T20:12:23.631Z,12.39
2019-04-06T20:14:54.911Z,12.36
2019-04-06T20:17:26.357Z,12.33
2019-04-06T20:19:57.746Z,12.29
2019-04-06T20:22:29.550Z,12.30
2019-04-06T20:25:02.026Z,12.26
2019-04-06T20:27:36.553Z,12.21
2019-04-06T20:30:11.281Z,12.17
2019-04-06T20:32:42.933Z,12.20
2019-04-06T20:35:16.787Z,12.22
2019-04-06T20:37:48.209Z,12.23
2019-04-06T20:40:21.035Z,12.18
2019-04-06T20:42:52.689Z,12.20
2019-04-06T20:45:24.656Z,12.24
2019-04-06T20:47:57.694Z,12.22
2019-04-06T20:50:29.032Z,12.20
2019-04-06T20:53:01.416Z,12.26
2019-04-06T20:55:33.161Z,12.35
2019-04-06T20:58:04.663Z,12.42
2019-04-06T21:00:36.269Z,12.45
2019-04-06T21:03:07.592Z,12.46
2019-04-06T21:05:39.471Z,12.53
2019-04-06T21:08:10.974Z,12.61
2019-04-06T21:10:42.870Z,12.66
2019-04-06T21:13:14.546Z,12.74
2019-04-06T21:15:46.042Z,12.81
2019-04-06T21:18:17.798Z,12.82
2019-04-06T21:20:49.542Z,12.84
2019-04-06T21:23:20.981Z,12.82
2019-04-06T21:25:52.795Z,12.79
2019-04-06T21:28:31.074Z,12.77
2019-04-06T21:31:02.452Z,12.78
2019-04-06T21:33:33.975Z,12.75
2019-04-06T21:36:06.240Z,12.74
2019-04-06T21:38:37.729Z,12.72
2019-04-06T21:41:09.022Z,12.70
2019-04-06T21:43:40.427Z,12.68
2019-04-06T21:46:12.210Z,12.66
2019-04-06T21:48:43.586Z,12.63
2019-04-06T21:51:14.867Z,12.59
2019-04-06T21:53:46.771Z,12.58
2019-04-06T21:56:19.155Z,12.54
2019-04-06T21:58:50.651Z,12.49
2019-04-06T22:01:23.038Z,12.44
2019-04-06T22:03:55.655Z,12.42
2019-04-06T22:06:27.068Z,12.41
2019-04-06T22:08:58.531Z,12.41
2019-04-06T22:11:29.952Z,12.37
2019-04-06T22:14:01.866Z,12.39
2019-04-06T22:16:33.655Z,12.39
2019-04-06T22:19:07.932Z,12.36
2019-04-06T22:21:39.523Z,12.39
2019-04-06T22:24:11.453Z,12.36
2019-04-06T22:26:42.828Z,12.32
2019-04-06T22:29:14.260Z,12.28
2019-04-06T22:31:45.788Z,12.27
2019-04-06T22:34:18.282Z,12.25
2019-04-06T22:36:49.669Z,12.22
2019-04-06T22:39:21.531Z,12.17
2019-04-06T22:41:52.878Z,12.09
2019-04-06T22:44:24.183Z,12.07
2019-04-06T22:46:55.562Z,12.04
2019-04-06T22:49:27.211Z,12.01
2019-04-06T22:51:59.402Z,11.97
2019-04-06T22:54:30.916Z,11.92
2019-04-06T22:57:02.752Z,11.86
2019-04-06T22:59:34.651Z,11.82
2019-04-06T23:02:06.441Z,11.83
2019-04-06T23:04:51.191Z,11.79
2019-04-06T23:07:23.627Z,11.76
2019-04-06T23:09:54.920Z,11.67
2019-04-06T23:12:26.303Z,11.67
2019-04-06T23:14:57.598Z,11.66
2019-04-06T23:17:28.850Z,11.65
2019-04-06T23:20:00.305Z,11.70
2019-04-06T23:22:31.770Z,11.59
2019-04-06T23:25:03.148Z,11.49
2019-04-06T23:27:37.710Z,11.39
2019-04-06T23:30:12.271Z,11.30
2019-04-06T23:32:43.733Z,11.25
2019-04-06T23:35:15.243Z,11.20
2019-04-06T23:37:47.092Z,11.17
2019-04-06T23:40:18.599Z,11.13
2019-04-06T23:42:49.926Z,11.05
2019-04-06T23:45:21.862Z,10.97
2019-04-06T23:47:53.770Z,10.90
2019-04-06T23:50:25.165Z,10.79
2019-04-06T23:52:56.512Z,10.73
2019-04-06T23:55:28.193Z,10.68
2019-04-06T23:57:59.578Z,10.67
